Ridge Spring, South Carolina
Current Conditions -  °F | °C
As of 4:15 AM on Monday 22 Dec 2014 (Local Time) from KAIK Reporting Station
Overcast Overcast  
Wind Chill: 40°   Ceiling: 500
Heat Index: 45°   Visibility: 7mi
Dew Point: 45°   Wind: 8mph
Humidity: 100%   Direction: 30°NNE
Pressure: 30.09"   Gusts: NA
Location:  33.85°N, 81.66°W
Report Text: KAIK 220915Z AUTO 03007KT 7SM OVC005 07/07 A3009 RMK AO2 LTG DSNT E PNO
Loading
Personal Weather Stations






























Interactive Weather Map New forecast layout! Learn more

10-Day Weather Forecast

Advertisements
Track Severe Weather on mobile